METAR Reports for West Virginia

 

KMRB - Martinsburg, West Virginia, USA
Distance from station: NW 50mi, 81km
Updated: Sat, 22-Jul-2017 9:53pm EDT
Light rain, Clear
Light rain, Clear
 Wind from SW
Wind: SW 7 mph , 11 km/h
Temperature: 73°F , 23°C
Dew Point: 70°F , 21°C
Humidity: 89%
Barometer: 29.81 inHg , 1009.5 hPa
Summary: Light rain
Clouds: Clear
Visibility: 8 miles , 13 km
2017/07/23 01:53 KMRB 230153Z AUTO 22006KT 8SM -RA CLR 23/21 A2981 RMK AO2 SLP088 P0003 T02330211 TSNO
KW99 - Petersburg, West Virginia, USA
Distance from station: W 94mi, 151km
Updated: Sat, 22-Jul-2017 10:30pm EDT
Rain, Overcast
Rain, Overcast
 Wind from E
Wind: E 3 mph , 6 km/h
Temperature: 73°F , 23°C
Dew Point: 73°F , 23°C
Humidity: 100%
Barometer: 29.86 inHg , 1011.2 hPa
Summary: Rain
Clouds: Overcast
Visibility: 4 miles , 6 km
Cloud details: Partly cloudy 5000 ft
Partly cloudy 6000 ft
Overcast 10000 ft
2017/07/23 02:30 KW99 230230Z AUTO 10003KT 4SM RA SCT050 SCT060 OVC100 23/23 A2986 RMK AO2 LTG DSNT SE THRU W P0003 T02290225
KEKN - Elkins, West Virginia, USA
Distance from station: W 131mi, 211km
Updated: Sat, 22-Jul-2017 9:58pm EDT
Rain, Mist, Overcast
Rain, Mist, Overcast
 Wind from SSE
Wind: SSE 6 mph , 9 km/h
Temperature: 68°F , 20°C
Dew Point: 64°F , 18°C
Humidity: 88%
Barometer: 29.95 inHg , 1014.2 hPa
Summary: Rain, Mist
Clouds: Overcast
Visibility: 6 miles , 10 km
Cloud details: Partly cloudy 2600 ft
Overcast 7000 ft
2017/07/23 01:58 KEKN 230158Z AUTO 15005KT 6SM RA BR SCT026 OVC070 20/18 A2995 RMK AO2 P0002 T02000178 TSNO
 
KMGW - Morgantown, West Virginia, USA
Distance from station: WNW 145mi, 234km
Updated: Sat, 22-Jul-2017 9:53pm EDT
Overcast
Overcast
 Wind from SSW
Wind: SSW 5 mph , 7 km/h
Temperature: 72°F , 22°C
Dew Point: 70°F , 21°C
Humidity: 94%
Barometer: 29.87 inHg , 1011.5 hPa
Clouds: Overcast
Visibility: 10 miles , 16 km
Cloud details: Mostly cloudy 4300 ft
Overcast 5500 ft
2017/07/23 01:53 KMGW 230153Z 21004KT 10SM BKN043 OVC055 22/21 A2987 RMK AO2 SLP104 T02220206
KCKB - Clarksburg, West Virginia, USA
Distance from station: WNW 154mi, 247km
Updated: Sat, 22-Jul-2017 9:53pm EDT
Nearby thunderstorm, Mostly cloudy
Nearby thunderstorm, Mostly cloudy
 Wind from SSW
Wind: SSW 8 mph , 13 km/h
Temperature: 72°F , 22°C
Dew Point: 70°F , 21°C
Humidity: 94%
Barometer: 29.86 inHg , 1011.2 hPa
Summary: Nearby Thunderstorm
Clouds: Mostly cloudy
Visibility: 10 miles , 16 km
Cloud details: Partly cloudy 3700 ft
Mostly cloudy 4600 ft
2017/07/23 01:53 KCKB 230153Z 20007KT 10SM VCTS SCT037 BKN046 22/21 A2986 RMK AO2 LTG DSNT E AND S RAE07B19E34 SLP097 P0007 T02170206
KW22 - Buckhannon, West Virginia, USA
Distance from station: W 154mi, 247km
Updated: Sat, 22-Jul-2017 10:35pm EDT
Overcast
Overcast
 Wind from SSW
Wind: SSW 5 mph , 7 km/h
Temperature: 70°F , 21°C
Dew Point: 70°F , 21°C
Humidity: 100%
Barometer: 29.90 inHg , 1012.5 hPa
Clouds: Overcast
Visibility: 10 miles , 16 km
Cloud details: Partly cloudy 3400 ft
Mostly cloudy 4200 ft
Overcast 5500 ft
2017/07/23 02:35 KW22 230235Z AUTO 20004KT 10SM SCT034 BKN042 OVC055 21/21 A2990 RMK AO2
 
KHLG - Wheeling, West Virginia, USA
Distance from station: WNW 196mi, 315km
Updated: Sat, 22-Jul-2017 10:19pm EDT
Overcast
Overcast
 Wind from S
Wind: S 6 mph , 9 km/h
Temperature: 73°F , 23°C
Dew Point: 72°F , 22°C
Humidity: 94%
Barometer: 29.83 inHg , 1010.2 hPa
Clouds: Overcast
Visibility: 7 miles , 11 km
Cloud details: Overcast 400 ft
2017/07/23 02:19 KHLG 230219Z AUTO 19005KT 7SM OVC004 23/22 A2983 RMK AO2 T02280217
KPKB - Parkersburg, West Virginia, USA
Distance from station: W 217mi, 350km
Updated: Sat, 22-Jul-2017 9:53pm EDT
Mist, Few clouds
Mist, Few clouds
 Wind from S
Wind: S 3 mph , 6 km/h
Temperature: 72°F , 22°C
Dew Point: 72°F , 22°C
Humidity: 100%
Barometer: 29.85 inHg , 1010.8 hPa
Summary: Mist
Clouds: Few Clouds
Visibility: 6 miles , 10 km
Cloud details: Few Clouds 4600 ft
2017/07/23 01:53 KPKB 230153Z 18003KT 6SM BR FEW046 22/22 A2985 RMK AO2 SLP102 T02220217
KCRW - Charleston, West Virginia, USA
Distance from station: WSW 227mi, 365km
Updated: Sat, 22-Jul-2017 9:54pm EDT
Mostly cloudy
Mostly cloudy
 Wind from SW
Wind: SW 9 mph , 15 km/h
Temperature: 84°F , 29°C
Heat Index: 90°F , 32°C
Dew Point: 73°F , 23°C
Humidity: 70%
Barometer: 29.85 inHg , 1010.8 hPa
Clouds: Mostly cloudy
Visibility: 10 miles , 16 km
Cloud details: Partly cloudy 5500 ft
Partly cloudy 11000 ft
Mostly cloudy 19000 ft
2017/07/23 01:54 KCRW 230154Z 23008KT 10SM SCT055 SCT110 BKN190 29/23 A2985 RMK AO2 SLP096 CB DSNT E AND W T02940228
 
KLWB - Lewisburg, West Virginia, USA
Distance from station: WSW 175mi, 281km
Updated: Sat, 22-Jul-2017 10:35pm EDT
Clear
Clear
 Wind from calm
Wind: Calm
Temperature: 81°F , 27°C
Heat Index: 84°F , 29°C
Dew Point: 68°F , 20°C
Humidity: 66%
Barometer: 29.96 inHg , 1014.6 hPa
Clouds: Clear
Visibility: 10 miles , 16 km
2017/07/23 02:35 KLWB 230235Z AUTO 00000KT 10SM CLR 27/20 A2996 RMK AO2 LTG DSNT N AND NE T02680196
KBKW - Beckley, West Virginia, USA
Distance from station: WSW 213mi, 342km
Updated: Sat, 22-Jul-2017 9:51pm EDT
Clear
Clear
 Wind from calm
Wind: Calm
Temperature: 79°F , 26°C
Dew Point: 68°F , 20°C
Humidity: 70%
Barometer: 29.99 inHg , 1015.6 hPa
Clouds: Clear
Visibility: 10 miles , 16 km
2017/07/23 01:51 KBKW 230151Z AUTO 00000KT 10SM CLR 26/20 A2999 RMK AO2 SLP110 T02560200 TSNO
KBLF - Bluefield, West Virginia, USA
Distance from station: SW 231mi, 372km
Updated: Sat, 22-Jul-2017 9:52pm EDT
Mostly cloudy
Mostly cloudy
 Wind from W
Wind: W 9 mph , 15 km/h
Temperature: 79°F , 26°C
Dew Point: 66°F , 19°C
Humidity: 65%
Barometer: 30.03 inHg , 1016.9 hPa
Clouds: Mostly cloudy
Visibility: 10 miles , 16 km
Cloud details: Few Clouds 3700 ft
Mostly cloudy 9500 ft
2017/07/23 01:52 KBLF 230152Z AUTO 26008KT 10SM FEW037 BKN095 26/19 A3003 RMK AO2 SLP123 T02560189
 
KI16 - Pineville, West Virginia, USA
Distance from station: WSW 240mi, 387km
Updated: Sat, 22-Jul-2017 10:35pm EDT
Mist, Clear
Mist, Clear
 
Temperature: 75°F , 24°C
Dew Point: 73°F , 23°C
Humidity: 94%
Barometer: 29.99 inHg , 1015.6 hPa
Summary: Mist
Clouds: Clear
Visibility: 5 miles , 8 km
2017/07/23 02:35 KI16 230235Z AUTO 5SM BR CLR 24/23 A2999 RMK AO2 T02390227
KHTS - Huntington, West Virginia, USA
Distance from station: W 279mi, 449km
Updated: Sat, 22-Jul-2017 9:51pm EDT
Partly cloudy
Partly cloudy
 Wind from calm
Wind: Calm
Temperature: 82°F , 28°C
Heat Index: 87°F , 31°C
Dew Point: 73°F , 23°C
Humidity: 74%
Barometer: 29.85 inHg , 1010.8 hPa
Clouds: Partly cloudy
Visibility: 10 miles , 16 km
Cloud details: Partly cloudy 10000 ft
2017/07/23 01:51 KHTS 230151Z 00000KT 10SM SCT100 28/23 A2985 RMK AO2 SLP098 T02830228